Time;durP1;ratioP1;P1;durP2;ratioP2;P2;SDS_P1;SDS_P2;PMS_P1;PMS_P2;Temp;Humidity;BMP_temperature;BMP_pressure;BME280_temperature;BME280_humidity;BME280_pressure;Samples;Min_cycle;Max_cycle;Signal;HPM_P1;HPM_P2
2023/07/19 00:01:21;;;;;;;5.97;2.13;;;20.80;96.70;;;;;;5057085;28;20184;-62
2023/07/19 00:03:46;;;;;;;4.95;1.85;;;20.70;96.70;;;;;;5057091;28;20178;-62
2023/07/19 00:06:14;;;;;;;4.93;2.10;;;20.70;96.90;;;;;;5057270;28;20330;-63
2023/07/19 00:08:42;;;;;;;4.25;1.88;;;20.60;96.90;;;;;;5057075;28;20246;-62
2023/07/19 00:11:10;;;;;;;3.50;1.98;;;20.50;96.90;;;;;;5055615;28;20187;-59
2023/07/19 00:13:38;;;;;;;2.55;1.85;;;20.50;97.00;;;;;;5058651;28;20193;-62
2023/07/19 00:16:04;;;;;;;5.32;2.10;;;20.40;97.10;;;;;;5056786;28;20169;-62
2023/07/19 00:18:30;;;;;;;3.55;2.03;;;20.40;97.30;;;;;;5053732;28;20196;-60
2023/07/19 00:20:58;;;;;;;2.97;2.00;;;20.40;97.50;;;;;;5058050;28;20264;-62
2023/07/19 00:23:26;;;;;;;3.10;1.92;;;20.30;97.50;;;;;;5069429;28;20174;-61
2023/07/19 00:25:52;;;;;;;3.55;2.03;;;20.30;97.60;;;;;;5036690;28;20272;-63
2023/07/19 00:28:17;;;;;;;2.85;1.95;;;20.30;97.80;;;;;;5052844;28;20264;-61
2023/07/19 00:30:43;;;;;;;3.53;2.15;;;20.20;97.80;;;;;;5055432;28;20205;-62
2023/07/19 00:33:09;;;;;;;3.97;2.05;;;20.30;97.90;;;;;;5056211;28;20205;-61
2023/07/19 00:35:40;;;;;;;3.50;1.77;;;20.20;97.90;;;;;;5053182;28;20166;-63
2023/07/19 00:38:06;;;;;;;3.75;2.00;;;20.20;97.90;;;;;;5046036;28;20194;-59
2023/07/19 00:40:33;;;;;;;2.58;1.80;;;20.10;98.10;;;;;;5052630;28;20201;-62
2023/07/19 00:42:58;;;;;;;4.88;2.28;;;20.10;98.10;;;;;;5067430;28;20205;-62
2023/07/19 00:45:27;;;;;;;3.88;1.83;;;20.10;98.20;;;;;;5044165;28;20182;-60
2023/07/19 00:47:56;;;;;;;2.70;1.80;;;20.00;98.20;;;;;;5101401;22;20212;-62
2023/07/19 00:50:23;;;;;;;3.83;1.80;;;20.00;98.30;;;;;;5065800;28;20193;-62
2023/07/19 00:52:51;;;;;;;4.15;1.98;;;20.00;98.50;;;;;;5055664;28;20346;-62
2023/07/19 00:55:20;;;;;;;3.47;1.80;;;19.90;98.50;;;;;;5052517;28;20202;-55
2023/07/19 00:57:46;;;;;;;3.00;1.90;;;19.90;98.70;;;;;;5055848;28;20240;-61
2023/07/19 01:00:12;;;;;;;3.40;1.98;;;19.90;98.80;;;;;;5052967;28;20256;-62
2023/07/19 01:02:41;;;;;;;2.17;1.70;;;19.90;98.90;;;;;;5042318;28;20232;-62
2023/07/19 01:05:07;;;;;;;2.85;1.77;;;19.90;98.90;;;;;;5063338;28;20177;-62
2023/07/19 01:07:35;;;;;;;4.10;1.85;;;19.90;99.00;;;;;;5054291;28;20184;-61
2023/07/19 01:10:01;;;;;;;2.88;1.60;;;19.90;99.10;;;;;;5052290;28;20198;-61
2023/07/19 01:12:27;;;;;;;4.68;1.85;;;19.80;99.20;;;;;;5055252;28;20177;-62
2023/07/19 01:14:52;;;;;;;3.25;1.92;;;19.80;99.20;;;;;;5057318;28;20185;-61
2023/07/19 01:17:18;;;;;;;3.33;1.80;;;19.80;99.30;;;;;;5056722;28;20197;-62
2023/07/19 01:19:46;;;;;;;4.60;2.10;;;19.80;99.40;;;;;;5054063;28;20227;-61
2023/07/19 01:22:13;;;;;;;3.60;2.05;;;19.80;99.50;;;;;;5040835;28;20169;-61
2023/07/19 01:24:42;;;;;;;2.53;1.80;;;19.80;99.70;;;;;;5055667;28;20238;-62
2023/07/19 01:27:10;;;;;;;3.35;1.90;;;19.70;99.70;;;;;;5055605;28;20185;-61
2023/07/19 01:29:36;;;;;;;3.28;2.00;;;19.70;99.70;;;;;;5056455;28;20182;-62
2023/07/19 01:32:01;;;;;;;2.88;1.83;;;19.70;99.70;;;;;;5061854;28;20202;-61
2023/07/19 01:34:27;;;;;;;2.40;1.77;;;19.70;99.80;;;;;;5053837;28;20201;-62
2023/07/19 01:36:52;;;;;;;2.35;1.77;;;19.60;99.90;;;;;;5044276;28;20231;-62
2023/07/19 01:39:18;;;;;;;3.33;1.95;;;19.60;99.90;;;;;;5054627;28;20189;-63
2023/07/19 01:41:46;;;;;;;3.33;2.00;;;19.60;99.90;;;;;;5064506;28;20298;-63
2023/07/19 01:44:13;;;;;;;4.63;1.77;;;19.50;99.90;;;;;;5062792;28;20205;-59
2023/07/19 01:46:41;;;;;;;2.67;1.73;;;19.50;99.90;;;;;;5055416;28;20220;-62
2023/07/19 01:49:07;;;;;;;2.95;2.10;;;19.50;99.90;;;;;;5055370;28;20196;-63
2023/07/19 01:51:32;;;;;;;3.45;1.88;;;19.40;99.90;;;;;;5055404;28;20185;-62
2023/07/19 01:53:58;;;;;;;2.72;1.83;;;19.40;99.90;;;;;;5054578;28;20205;-63
2023/07/19 01:56:24;;;;;;;3.45;2.15;;;19.40;99.90;;;;;;5054628;28;20169;-63
2023/07/19 01:58:50;;;;;;;2.92;1.83;;;19.40;99.90;;;;;;5055292;28;20238;-62
2023/07/19 02:01:15;;;;;;;3.22;1.77;;;19.40;99.90;;;;;;5060185;28;20176;-62
2023/07/19 02:03:43;;;;;;;3.13;1.52;;;19.30;99.90;;;;;;5066471;28;20250;-62
2023/07/19 02:06:09;;;;;;;2.88;1.80;;;19.30;99.90;;;;;;5067084;28;20177;-61
2023/07/19 02:08:36;;;;;;;2.03;1.50;;;19.30;99.90;;;;;;5068256;28;20185;-62
2023/07/19 02:11:02;;;;;;;3.08;1.60;;;19.20;99.90;;;;;;5054380;28;20238;-62
2023/07/19 02:13:28;;;;;;;2.80;1.90;;;19.20;99.90;;;;;;5054266;28;20205;-62
2023/07/19 02:15:53;;;;;;;2.40;1.80;;;19.20;99.90;;;;;;5055615;28;20231;-62
2023/07/19 02:18:22;;;;;;;3.38;1.88;;;19.20;99.90;;;;;;5056654;28;20173;-58
2023/07/19 02:20:50;;;;;;;3.35;2.00;;;19.10;99.90;;;;;;5054399;28;20193;-61
2023/07/19 02:23:18;;;;;;;2.58;1.85;;;19.20;99.90;;;;;;5055031;28;20219;-62
2023/07/19 02:25:48;;;;;;;3.70;1.98;;;19.10;99.90;;;;;;5054570;28;20243;-61
2023/07/19 02:28:16;;;;;;;2.97;1.90;;;19.10;99.90;;;;;;5069858;28;20203;-62
2023/07/19 02:30:43;;;;;;;2.50;1.80;;;19.10;99.90;;;;;;5053670;28;20184;-61
2023/07/19 02:33:10;;;;;;;3.38;1.88;;;19.00;99.90;;;;;;5054882;28;20211;-71
2023/07/19 02:35:36;;;;;;;2.50;1.60;;;19.00;99.90;;;;;;5054336;28;20205;-70
2023/07/19 02:38:04;;;;;;;3.40;1.73;;;19.00;99.90;;;;;;5052322;28;20386;-68
2023/07/19 02:40:32;;;;;;;2.60;1.48;;;19.00;99.90;;;;;;5048640;28;20200;-70
2023/07/19 02:42:58;;;;;;;3.05;1.77;;;19.00;99.90;;;;;;5039237;28;20232;-71
2023/07/19 02:45:24;;;;;;;2.83;1.70;;;19.00;99.90;;;;;;5066769;28;20174;-71
2023/07/19 02:47:50;;;;;;;4.07;1.92;;;19.00;99.90;;;;;;5049401;28;20184;-69
2023/07/19 02:50:20;;;;;;;3.63;1.80;;;18.90;99.90;;;;;;5034615;28;20228;-71
2023/07/19 02:52:51;;;;;;;2.85;1.75;;;18.90;99.90;;;;;;5050836;28;20177;-71
2023/07/19 02:55:19;;;;;;;2.67;1.77;;;18.90;99.90;;;;;;5057282;28;20256;-71
2023/07/19 02:57:49;;;;;;;2.70;2.15;;;18.90;99.90;;;;;;5054018;28;20204;-71
2023/07/19 03:00:17;;;;;;;2.88;1.90;;;18.90;99.90;;;;;;5051969;28;20173;-70
2023/07/19 03:02:53;;;;;;;2.33;1.73;;;18.90;99.90;;;;;;5048532;28;20181;-71
2023/07/19 03:05:23;;;;;;;3.30;2.25;;;18.80;99.90;;;;;;5049063;28;20200;-71
2023/07/19 03:07:54;;;;;;;2.60;1.90;;;18.80;99.90;;;;;;5046828;28;20174;-71
2023/07/19 03:10:19;;;;;;;2.78;1.80;;;18.70;99.90;;;;;;5053067;28;20211;-71
2023/07/19 03:12:47;;;;;;;4.93;1.75;;;18.70;99.90;;;;;;5053642;28;20197;-66
2023/07/19 03:15:15;;;;;;;2.70;1.77;;;18.70;99.90;;;;;;5050614;28;20169;-71
2023/07/19 03:17:41;;;;;;;3.15;1.73;;;18.70;99.90;;;;;;5043831;28;20166;-70
2023/07/19 03:20:10;;;;;;;2.03;1.73;;;18.70;99.90;;;;;;5049705;28;20303;-68
2023/07/19 03:22:35;;;;;;;3.88;1.77;;;18.70;99.90;;;;;;5050376;28;20224;-71
2023/07/19 03:25:01;;;;;;;2.70;1.80;;;18.70;99.90;;;;;;5045327;28;20323;-71
2023/07/19 03:27:29;;;;;;;3.13;2.13;;;18.60;99.90;;;;;;5053723;28;20310;-71
2023/07/19 03:29:55;;;;;;;2.58;2.03;;;18.60;99.90;;;;;;5053454;28;20179;-71
2023/07/19 03:32:20;;;;;;;2.42;1.80;;;18.60;99.90;;;;;;5057740;28;20257;-70
2023/07/19 03:34:53;;;;;;;3.10;1.95;;;18.50;99.90;;;;;;5054531;28;20189;-69
2023/07/19 03:37:18;;;;;;;3.17;2.00;;;18.50;99.90;;;;;;5053878;28;20178;-71
2023/07/19 03:39:46;;;;;;;3.30;1.92;;;18.50;99.90;;;;;;5053386;28;20173;-71
2023/07/19 03:42:14;;;;;;;2.97;1.90;;;18.50;99.90;;;;;;5053675;28;20188;-71
2023/07/19 03:44:42;;;;;;;3.05;1.73;;;18.50;99.90;;;;;;5050280;28;20185;-69
2023/07/19 03:47:08;;;;;;;2.58;1.60;;;18.50;99.90;;;;;;5050215;28;20228;-71
2023/07/19 03:49:36;;;;;;;2.95;2.03;;;18.50;99.90;;;;;;5052671;28;20198;-71
2023/07/19 03:52:01;;;;;;;2.38;1.63;;;18.40;99.90;;;;;;5064104;28;20227;-66
2023/07/19 03:54:27;;;;;;;2.92;1.83;;;18.40;99.90;;;;;;5053423;28;20237;-71
2023/07/19 03:56:53;;;;;;;2.55;1.80;;;18.40;99.90;;;;;;5055343;28;20178;-65
2023/07/19 03:59:18;;;;;;;2.63;1.85;;;18.40;99.90;;;;;;5053862;28;20176;-71
2023/07/19 04:01:44;;;;;;;2.95;2.00;;;18.40;99.90;;;;;;5065236;28;20193;-71
2023/07/19 04:04:10;;;;;;;2.83;2.00;;;18.40;99.90;;;;;;5053783;28;20180;-77
2023/07/19 04:06:36;;;;;;;3.72;2.08;;;18.40;99.90;;;;;;5061270;28;20181;-76
2023/07/19 04:09:01;;;;;;;2.90;1.83;;;18.40;99.90;;;;;;5056559;28;20204;-78
2023/07/19 04:11:30;;;;;;;3.08;1.67;;;18.40;99.90;;;;;;5053695;28;20230;-75
2023/07/19 04:13:56;;;;;;;3.90;2.60;;;18.40;99.90;;;;;;5054426;28;20194;-75
2023/07/19 04:16:22;;;;;;;4.85;2.40;;;18.30;99.90;;;;;;5060202;28;20289;-78
2023/07/19 04:18:49;;;;;;;3.33;2.00;;;18.40;99.90;;;;;;5056857;28;20192;-79
2023/07/19 04:21:20;;;;;;;3.33;2.42;;;18.30;99.90;;;;;;5057152;28;20169;-77
2023/07/19 04:23:47;;;;;;;3.53;2.30;;;18.30;99.90;;;;;;5056486;28;20205;-76
2023/07/19 04:26:15;;;;;;;5.72;3.83;;;18.30;99.90;;;;;;5058416;28;20185;-76
2023/07/19 04:28:41;;;;;;;13.43;9.52;;;18.30;99.90;;;;;;5057508;28;20181;-78
2023/07/19 04:31:07;;;;;;;6.00;4.78;;;18.30;99.90;;;;;;5058425;28;20200;-78
2023/07/19 04:33:34;;;;;;;5.25;3.58;;;18.40;99.90;;;;;;5059988;28;20200;-73
2023/07/19 04:36:09;;;;;;;4.70;2.85;;;18.40;99.90;;;;;;5059071;28;20264;-78
2023/07/19 04:38:37;;;;;;;4.35;2.70;;;18.40;99.90;;;;;;5047544;28;20193;-76
2023/07/19 04:41:02;;;;;;;2.63;2.38;;;18.50;99.90;;;;;;5077674;28;20165;-78
2023/07/19 04:43:28;;;;;;;4.47;2.20;;;18.50;99.90;;;;;;5065352;28;20177;-77
2023/07/19 04:45:54;;;;;;;3.92;2.30;;;18.50;99.90;;;;;;5056389;28;20359;-78
2023/07/19 04:48:20;;;;;;;2.10;1.90;;;18.50;99.90;;;;;;5053831;28;20204;-78
2023/07/19 04:50:46;;;;;;;3.90;2.38;;;18.60;99.90;;;;;;5056140;28;20177;-78
2023/07/19 04:53:11;;;;;;;3.00;2.20;;;18.60;99.90;;;;;;5056328;28;20193;-77
2023/07/19 04:55:37;;;;;;;3.83;2.40;;;18.70;99.90;;;;;;5056383;28;20177;-72
2023/07/19 04:58:06;;;;;;;3.10;2.00;;;18.70;99.90;;;;;;5056282;28;20467;-72
2023/07/19 05:00:32;;;;;;;2.72;1.90;;;18.70;99.90;;;;;;5056018;28;20166;-73
2023/07/19 05:02:58;;;;;;;2.80;1.70;;;18.70;99.90;;;;;;5048952;28;20193;-73
2023/07/19 05:05:26;;;;;;;4.03;2.10;;;18.80;99.90;;;;;;5048489;28;20279;-73
2023/07/19 05:07:51;;;;;;;3.60;1.98;;;18.90;99.90;;;;;;5059740;28;20170;-73
2023/07/19 05:10:17;;;;;;;5.20;2.03;;;18.90;99.90;;;;;;5055923;28;20215;-72
2023/07/19 05:12:43;;;;;;;5.13;2.15;;;18.90;99.90;;;;;;5055873;28;20201;-69
2023/07/19 05:15:09;;;;;;;3.10;2.15;;;18.90;99.90;;;;;;5057210;28;20236;-71
2023/07/19 05:17:34;;;;;;;4.18;1.92;;;19.00;99.90;;;;;;5051592;28;20428;-73
2023/07/19 05:20:08;;;;;;;3.38;2.15;;;19.10;99.90;;;;;;5043073;28;20177;-72
2023/07/19 05:22:33;;;;;;;3.80;2.50;;;19.10;99.90;;;;;;5071739;28;20177;-72
2023/07/19 05:25:03;;;;;;;3.78;2.05;;;19.10;99.90;;;;;;5072952;28;20188;-72
2023/07/19 05:27:29;;;;;;;3.25;1.88;;;19.20;99.90;;;;;;5062293;28;20179;-72
2023/07/19 05:29:54;;;;;;;3.10;2.05;;;19.30;99.90;;;;;;5075567;28;20222;-71
2023/07/19 05:32:22;;;;;;;4.75;2.22;;;19.40;99.90;;;;;;5065534;28;20213;-72
2023/07/19 05:34:48;;;;;;;2.78;2.00;;;19.40;99.90;;;;;;5056558;28;20288;-73
2023/07/19 05:37:13;;;;;;;5.20;1.90;;;19.50;99.90;;;;;;5056931;28;20269;-72
2023/07/19 05:39:41;;;;;;;3.25;1.92;;;19.50;99.90;;;;;;5063743;28;20169;-70
2023/07/19 05:42:07;;;;;;;3.92;2.38;;;19.60;99.90;;;;;;5062883;28;20169;-69
2023/07/19 05:44:35;;;;;;;5.32;2.28;;;19.70;99.90;;;;;;5055153;28;20168;-72
2023/07/19 05:47:01;;;;;;;5.53;2.38;;;19.80;99.90;;;;;;5058205;28;20172;-72
2023/07/19 05:49:26;;;;;;;3.97;2.35;;;19.80;99.90;;;;;;5075173;28;20277;-69
2023/07/19 05:51:52;;;;;;;3.10;2.40;;;19.90;99.90;;;;;;5073553;28;20172;-72
2023/07/19 05:54:21;;;;;;;5.55;2.67;;;19.90;99.90;;;;;;5057384;28;20190;-72
2023/07/19 05:56:49;;;;;;;4.55;2.70;;;20.00;99.90;;;;;;5055310;28;20236;-73
2023/07/19 05:59:14;;;;;;;4.88;2.40;;;20.00;99.90;;;;;;5054856;28;20166;-72
2023/07/19 06:01:40;;;;;;;5.80;2.42;;;20.10;99.90;;;;;;5055402;28;20284;-72
2023/07/19 06:04:06;;;;;;;4.05;2.28;;;20.10;99.90;;;;;;5055214;28;20184;-71
2023/07/19 06:06:36;;;;;;;2.97;1.92;;;20.10;99.90;;;;;;5054663;28;20192;-71
2023/07/19 06:09:05;;;;;;;5.60;2.15;;;20.20;99.90;;;;;;5054349;28;20181;-72
2023/07/19 06:11:35;;;;;;;3.65;2.28;;;20.20;99.90;;;;;;5054815;28;20212;-73
2023/07/19 06:14:01;;;;;;;4.32;2.00;;;20.20;99.90;;;;;;5054762;28;20197;-70
2023/07/19 06:16:27;;;;;;;4.78;1.75;;;20.20;99.90;;;;;;5054695;28;20263;-74
2023/07/19 06:18:53;;;;;;;3.17;2.05;;;20.10;99.90;;;;;;5054740;28;20265;-73
2023/07/19 06:21:19;;;;;;;2.97;2.00;;;20.10;99.90;;;;;;5060167;28;20192;-71
2023/07/19 06:23:47;;;;;;;3.08;2.13;;;20.10;99.90;;;;;;5058201;28;20185;-72
2023/07/19 06:26:13;;;;;;;2.70;1.70;;;20.10;99.90;;;;;;5054286;28;20212;-72
2023/07/19 06:28:39;;;;;;;3.03;2.20;;;20.20;99.90;;;;;;5054440;28;20223;-72
2023/07/19 06:31:04;;;;;;;6.28;3.70;;;20.20;99.90;;;;;;5037065;28;20169;-72
2023/07/19 06:33:32;;;;;;;3.58;2.90;;;20.30;99.90;;;;;;5034433;28;20197;-72
2023/07/19 06:35:58;;;;;;;4.22;2.67;;;20.30;99.90;;;;;;5034160;28;20170;-72
2023/07/19 06:38:30;;;;;;;3.65;2.30;;;20.40;99.90;;;;;;5050712;28;20185;-70
2023/07/19 06:41:03;;;;;;;2.85;2.20;;;20.50;99.90;;;;;;5034138;28;20166;-72
2023/07/19 06:43:28;;;;;;;3.45;2.42;;;20.70;99.90;;;;;;5034496;28;20443;-72
2023/07/19 06:45:56;;;;;;;2.83;1.92;;;20.70;99.90;;;;;;5045640;28;20545;-71
2023/07/19 06:48:22;;;;;;;3.65;2.15;;;20.80;99.90;;;;;;5092489;22;20238;-72
2023/07/19 06:50:49;;;;;;;2.50;1.83;;;20.90;99.90;;;;;;5018291;28;20203;-72
2023/07/19 06:53:17;;;;;;;2.50;1.95;;;20.90;99.90;;;;;;5015190;28;20194;-71
2023/07/19 06:55:45;;;;;;;3.25;2.03;;;21.00;99.90;;;;;;5014620;28;20186;-73
2023/07/19 06:58:11;;;;;;;3.78;2.05;;;21.00;99.90;;;;;;5014669;28;20171;-71
2023/07/19 07:00:39;;;;;;;2.88;1.83;;;21.10;99.90;;;;;;5018309;28;20165;-70
2023/07/19 07:03:05;;;;;;;3.15;1.90;;;21.20;99.90;;;;;;5035593;28;20182;-71
2023/07/19 07:05:30;;;;;;;5.45;2.20;;;21.20;99.90;;;;;;5036523;28;20192;-72
2023/07/19 07:07:56;;;;;;;3.45;2.10;;;21.20;99.90;;;;;;5034520;28;20174;-71
2023/07/19 07:10:22;;;;;;;3.03;1.80;;;21.30;99.90;;;;;;5034261;28;20181;-72
2023/07/19 07:12:47;;;;;;;4.68;2.20;;;21.30;99.90;;;;;;5031776;28;20198;-73
2023/07/19 07:15:13;;;;;;;2.60;1.92;;;21.30;99.90;;;;;;5034003;28;20458;-69
2023/07/19 07:17:41;;;;;;;2.80;2.08;;;21.30;99.90;;;;;;5034242;28;20181;-73
2023/07/19 07:20:10;;;;;;;2.88;1.70;;;21.30;99.90;;;;;;5033530;28;20198;-71
2023/07/19 07:22:38;;;;;;;4.18;2.00;;;21.40;99.90;;;;;;5033883;28;20177;-73
2023/07/19 07:25:04;;;;;;;3.47;2.17;;;21.50;99.90;;;;;;5033887;28;20170;-73
2023/07/19 07:27:32;;;;;;;2.72;1.95;;;21.60;99.90;;;;;;5033831;28;20265;-72
2023/07/19 07:30:00;;;;;;;4.03;2.10;;;21.60;99.90;;;;;;5033855;28;20178;-67
2023/07/19 07:32:26;;;;;;;3.45;2.13;;;21.70;99.90;;;;;;5033916;28;20170;-73
2023/07/19 07:34:51;;;;;;;3.20;2.17;;;21.80;99.90;;;;;;5030719;28;20209;-73
2023/07/19 07:37:17;;;;;;;2.55;2.05;;;21.90;99.90;;;;;;5030477;28;20205;-70
2023/07/19 07:39:43;;;;;;;2.55;1.80;;;21.90;99.90;;;;;;5025112;28;20177;-72
2023/07/19 07:42:09;;;;;;;4.75;2.08;;;22.00;99.90;;;;;;5033888;28;20248;-72
2023/07/19 07:44:34;;;;;;;5.13;2.15;;;22.10;99.90;;;;;;5023027;28;20178;-74
2023/07/19 07:47:00;;;;;;;5.20;3.60;;;22.20;99.90;;;;;;5034460;28;20269;-73
2023/07/19 07:49:26;;;;;;;5.63;4.32;;;22.30;99.90;;;;;;5033873;28;20251;-68
2023/07/19 07:51:51;;;;;;;4.88;3.05;;;22.30;99.90;;;;;;5034675;28;20201;-72
2023/07/19 07:54:17;;;;;;;4.13;3.05;;;22.40;99.90;;;;;;5037436;28;20219;-70
2023/07/19 07:56:43;;;;;;;4.72;2.80;;;22.50;99.90;;;;;;5037163;28;20198;-72
2023/07/19 07:59:09;;;;;;;4.13;2.47;;;22.60;99.90;;;;;;5037131;28;20174;-71
2023/07/19 08:01:34;;;;;;;3.05;2.00;;;22.70;99.90;;;;;;5037257;28;20174;-73
2023/07/19 08:04:01;;;;;;;3.63;2.58;;;22.80;99.90;;;;;;5037558;28;20173;-72
2023/07/19 08:06:29;;;;;;;3.88;1.95;;;22.90;99.90;;;;;;5027542;28;20186;-70
2023/07/19 08:08:55;;;;;;;4.15;2.10;;;23.00;99.90;;;;;;5036184;28;20175;-73
2023/07/19 08:11:21;;;;;;;3.25;2.25;;;23.00;99.90;;;;;;5037051;28;20188;-68
2023/07/19 08:13:47;;;;;;;2.80;2.00;;;23.10;99.90;;;;;;5036805;28;20210;-71
2023/07/19 08:16:13;;;;;;;3.42;1.85;;;23.20;99.90;;;;;;5037116;28;20216;-73
2023/07/19 08:18:38;;;;;;;6.28;2.30;;;23.30;99.90;;;;;;5037243;28;20170;-74
2023/07/19 08:21:08;;;;;;;3.45;2.17;;;23.40;99.90;;;;;;5037045;28;20166;-73
2023/07/19 08:23:33;;;;;;;3.35;2.20;;;23.40;99.90;;;;;;5036910;28;20288;-72
2023/07/19 08:26:01;;;;;;;4.95;2.35;;;23.40;99.90;;;;;;5036430;28;20217;-73
2023/07/19 08:28:29;;;;;;;5.32;2.47;;;23.40;99.90;;;;;;5036204;28;20178;-72
2023/07/19 08:30:55;;;;;;;4.65;2.15;;;23.50;99.90;;;;;;5036575;28;20198;-72
2023/07/19 08:33:24;;;;;;;6.03;2.15;;;23.60;99.90;;;;;;5036673;28;20269;-72
2023/07/19 08:35:50;;;;;;;3.42;1.90;;;23.60;99.90;;;;;;5036344;28;20178;-72
2023/07/19 08:38:16;;;;;;;2.95;2.10;;;23.70;99.90;;;;;;5036742;28;20193;-72
2023/07/19 08:40:53;;;;;;;4.45;2.40;;;23.70;99.90;;;;;;5036651;28;20269;-73
2023/07/19 08:43:19;;;;;;;2.88;1.60;;;23.70;99.90;;;;;;5036843;28;20177;-73
2023/07/19 08:45:45;;;;;;;2.80;2.00;;;23.70;99.90;;;;;;5036040;28;20324;-72
2023/07/19 08:48:11;;;;;;;3.42;1.70;;;23.60;99.90;;;;;;5036638;28;20232;-67
2023/07/19 08:50:38;;;;;;;4.63;2.13;;;23.60;99.90;;;;;;5036454;28;20213;-72
2023/07/19 08:53:04;;;;;;;3.03;1.75;;;23.60;99.90;;;;;;5030336;28;20181;-73
2023/07/19 08:55:32;;;;;;;3.60;1.98;;;23.70;99.90;;;;;;5036577;28;20170;-72
2023/07/19 08:57:59;;;;;;;2.95;1.77;;;23.70;99.90;;;;;;5036347;28;20202;-73
2023/07/19 09:00:33;;;;;;;2.92;1.75;;;23.80;99.90;;;;;;5035674;28;20340;-72
2023/07/19 09:02:59;;;;;;;2.83;1.88;;;23.90;99.90;;;;;;5032600;28;20169;-73
2023/07/19 09:05:28;;;;;;;2.63;1.83;;;24.00;99.90;;;;;;5020487;28;20281;-73
2023/07/19 09:07:54;;;;;;;4.03;2.10;;;24.00;99.90;;;;;;5016508;28;20175;-69
2023/07/19 09:10:25;;;;;;;4.40;2.15;;;24.10;99.90;;;;;;5016501;28;20170;-73
2023/07/19 09:12:50;;;;;;;2.75;1.90;;;24.10;99.90;;;;;;5016107;28;20253;-72
2023/07/19 09:15:19;;;;;;;2.33;1.73;;;24.20;99.90;;;;;;5021493;28;20170;-73
2023/07/19 09:17:47;;;;;;;4.82;2.08;;;24.20;99.90;;;;;;5035620;28;20178;-68
2023/07/19 09:20:14;;;;;;;3.85;1.90;;;24.20;99.90;;;;;;5035807;28;20181;-73
2023/07/19 09:22:40;;;;;;;3.45;1.88;;;24.30;99.90;;;;;;5036030;28;20190;-68
2023/07/19 09:25:09;;;;;;;4.28;2.10;;;24.30;99.90;;;;;;5035857;28;20212;-68
2023/07/19 09:27:42;;;;;;;2.80;1.92;;;24.40;99.90;;;;;;5035862;28;20185;-72
2023/07/19 09:30:11;;;;;;;3.72;2.17;;;24.40;99.90;;;;;;5035924;28;20182;-73
2023/07/19 09:32:37;;;;;;;2.85;1.98;;;24.50;99.90;;;;;;5035557;28;20198;-73
2023/07/19 09:35:04;;;;;;;6.68;2.50;;;24.50;99.90;;;;;;5035086;28;20228;-71
2023/07/19 09:37:31;;;;;;;5.47;1.80;;;24.50;99.90;;;;;;5018937;28;20234;-73
2023/07/19 09:40:01;;;;;;;4.70;1.77;;;24.50;99.90;;;;;;5033330;28;20186;-72
2023/07/19 09:42:29;;;;;;;7.57;2.10;;;24.60;99.90;;;;;;5035463;28;20205;-72
2023/07/19 09:44:59;;;;;;;2.88;1.90;;;24.60;99.90;;;;;;5035322;28;20292;-70
2023/07/19 09:47:30;;;;;;;4.43;2.17;;;24.60;99.90;;;;;;5036443;28;20170;-72
2023/07/19 09:49:59;;;;;;;3.22;2.08;;;24.70;99.90;;;;;;5035090;28;20193;-71
2023/07/19 09:52:28;;;;;;;4.63;1.92;;;24.70;99.90;;;;;;5035368;28;20189;-72
2023/07/19 09:54:57;;;;;;;5.22;2.35;;;24.70;99.90;;;;;;5036133;28;20189;-69
2023/07/19 09:57:26;;;;;;;7.07;2.20;;;24.70;99.90;;;;;;5035340;28;20280;-71
2023/07/19 09:59:57;;;;;;;3.03;1.73;;;24.70;99.90;;;;;;5035286;28;20174;-71
2023/07/19 10:02:26;;;;;;;2.90;1.70;;;24.70;99.90;;;;;;5020691;28;20198;-73
2023/07/19 10:04:52;;;;;;;6.18;1.67;;;24.70;99.90;;;;;;5028513;28;20202;-73
2023/07/19 10:07:25;;;;;;;3.80;1.73;;;24.60;99.90;;;;;;5034779;28;20228;-73
2023/07/19 10:10:01;;;;;;;3.53;1.60;;;24.60;99.90;;;;;;5034958;28;20303;-73
2023/07/19 10:12:28;;;;;;;2.85;1.67;;;24.60;99.90;;;;;;5035237;28;20265;-70
2023/07/19 10:14:59;;;;;;;2.08;1.35;;;24.60;99.90;;;;;;5033840;28;20209;-71
2023/07/19 10:17:25;;;;;;;2.55;1.92;;;24.60;99.90;;;;;;5035081;28;20208;-71
2023/07/19 10:20:03;;;;;;;6.47;2.00;;;24.60;99.90;;;;;;5032432;28;20170;-71
2023/07/19 10:22:50;;;;;;;3.15;1.80;;;24.60;99.90;;;;;;5034808;28;20229;-72
2023/07/19 10:25:27;;;;;;;2.60;1.55;;;24.60;99.90;;;;;;5034690;28;20179;-72
2023/07/19 10:27:58;;;;;;;3.83;1.95;;;24.60;99.90;;;;;;5034900;28;20249;-72
2023/07/19 10:30:45;;;;;;;4.13;1.70;;;24.60;99.90;;;;;;5051471;28;20176;-69
2023/07/19 10:33:15;;;;;;;3.15;1.70;;;24.70;99.90;;;;;;5034650;28;20208;-74
2023/07/19 10:35:43;;;;;;;2.90;1.80;;;24.60;99.90;;;;;;5034454;28;20194;-73
2023/07/19 10:38:26;;;;;;;2.20;1.45;;;24.70;99.90;;;;;;5033694;28;20180;-72
2023/07/19 10:41:02;;;;;;;2.50;1.58;;;24.70;99.90;;;;;;5031924;28;20209;-70
2023/07/19 10:43:30;;;;;;;3.10;1.98;;;24.80;99.90;;;;;;5035423;28;20181;-74
2023/07/19 10:45:59;;;;;;;5.00;2.72;;;25.00;99.90;;;;;;5034518;28;20261;-73
2023/07/19 10:48:29;;;;;;;2.65;1.75;;;25.10;99.90;;;;;;5034199;28;20337;-69
2023/07/19 10:51:10;;;;;;;7.38;3.65;;;25.30;99.90;;;;;;5034496;28;20232;-70
2023/07/19 10:53:45;;;;;;;7.70;4.97;;;25.50;99.90;;;;;;5034098;28;20292;-72
2023/07/19 10:56:13;;;;;;;6.10;3.67;;;25.80;99.90;;;;;;5034191;28;20429;-70
2023/07/19 10:58:44;;;;;;;4.28;2.90;;;26.00;99.90;;;;;;5034283;28;20170;-73
2023/07/19 11:01:12;;;;;;;4.32;2.20;;;26.10;99.90;;;;;;5034277;28;20226;-71
2023/07/19 11:03:40;;;;;;;3.13;1.98;;;26.20;99.90;;;;;;5034164;28;20174;-69
2023/07/19 11:06:07;;;;;;;4.07;2.00;;;26.30;99.90;;;;;;5034360;28;20178;-71
2023/07/19 11:08:33;;;;;;;3.35;1.73;;;26.40;99.90;;;;;;5021275;28;20216;-72
2023/07/19 11:11:01;;;;;;;3.65;2.15;;;26.50;99.90;;;;;;5017051;28;20170;-70
2023/07/19 11:13:30;;;;;;;9.98;2.00;;;26.50;99.90;;;;;;5033902;28;20283;-72
2023/07/19 11:16:03;;;;;;;3.95;1.80;;;26.60;99.90;;;;;;5023576;28;20269;-69
2023/07/19 11:18:30;;;;;;;3.17;1.65;;;26.70;99.90;;;;;;5033654;28;20245;-71
2023/07/19 11:20:59;;;;;;;5.43;1.90;;;26.80;99.90;;;;;;5033982;28;20189;-70
2023/07/19 11:23:28;;;;;;;4.80;2.10;;;27.00;99.90;;;;;;5034054;28;20181;-74
2023/07/19 11:26:07;;;;;;;3.05;1.85;;;27.20;99.90;;;;;;5015552;28;20199;-72
2023/07/19 11:28:45;;;;;;;3.60;2.08;;;27.50;98.60;;;;;;5018133;28;20202;-71
2023/07/19 11:31:33;;;;;;;3.70;2.17;;;27.70;99.40;;;;;;5042320;28;20162;-69
2023/07/19 11:34:13;;;;;;;4.10;1.88;;;27.90;98.40;;;;;;5037665;28;20206;-72
2023/07/19 11:36:46;;;;;;;2.08;1.63;;;28.10;98.50;;;;;;5034484;28;20182;-69
2023/07/19 11:39:16;;;;;;;5.60;2.05;;;28.30;98.70;;;;;;5021034;28;20197;-73
2023/07/19 11:41:43;;;;;;;4.20;1.98;;;28.50;98.40;;;;;;5037873;28;20184;-72
2023/07/19 11:44:20;;;;;;;3.72;2.00;;;28.60;98.60;;;;;;5037788;28;20174;-65
2023/07/19 11:46:47;;;;;;;3.58;1.75;;;28.60;97.30;;;;;;5037748;28;20214;-70
2023/07/19 11:49:13;;;;;;;3.55;2.10;;;28.60;97.80;;;;;;5021085;28;20198;-72
2023/07/19 11:51:39;;;;;;;3.20;1.95;;;28.60;97.80;;;;;;5030375;28;20216;-73
2023/07/19 11:54:05;;;;;;;3.97;2.20;;;28.70;97.90;;;;;;5037488;28;20219;-73
2023/07/19 11:56:34;;;;;;;3.30;2.00;;;28.60;97.50;;;;;;5030318;28;20177;-70
2023/07/19 11:59:02;;;;;;;2.72;1.70;;;28.60;97.10;;;;;;5037317;28;20232;-68
2023/07/19 12:01:30;;;;;;;4.22;2.00;;;28.50;96.90;;;;;;5037563;28;20174;-71
2023/07/19 12:03:59;;;;;;;2.47;1.50;;;28.50;96.80;;;;;;5037206;28;20202;-71
2023/07/19 12:06:25;;;;;;;2.47;1.55;;;28.40;97.00;;;;;;5037656;28;20185;-72
2023/07/19 12:08:51;;;;;;;3.42;1.70;;;28.40;96.90;;;;;;5037133;28;20177;-71
2023/07/19 12:11:16;;;;;;;3.25;1.50;;;28.40;96.40;;;;;;5037065;28;20209;-72
2023/07/19 12:13:42;;;;;;;2.53;1.58;;;28.30;96.00;;;;;;5036495;28;20255;-71
2023/07/19 12:16:08;;;;;;;3.00;1.50;;;28.20;95.80;;;;;;5037083;28;20169;-73
2023/07/19 12:18:34;;;;;;;4.47;1.83;;;28.20;95.90;;;;;;5037161;28;20174;-71
2023/07/19 12:21:00;;;;;;;2.67;1.77;;;28.20;95.90;;;;;;5037220;28;20173;-72
2023/07/19 12:23:27;;;;;;;7.00;1.80;;;28.30;95.80;;;;;;5036855;28;20189;-72
2023/07/19 12:25:53;;;;;;;3.17;1.70;;;28.30;95.10;;;;;;5037038;28;20182;-71
2023/07/19 12:28:22;;;;;;;2.72;1.67;;;28.40;95.50;;;;;;5037156;28;20231;-73
2023/07/19 12:30:50;;;;;;;2.95;1.70;;;28.50;95.40;;;;;;5036460;28;20178;-73
2023/07/19 12:33:18;;;;;;;3.72;1.67;;;28.60;94.10;;;;;;5036415;28;20209;-73
2023/07/19 12:35:47;;;;;;;4.72;1.85;;;28.50;93.70;;;;;;5036765;28;20217;-72
2023/07/19 12:38:17;;;;;;;2.60;1.58;;;28.40;93.50;;;;;;5035829;28;20174;-70
2023/07/19 12:40:43;;;;;;;3.83;1.63;;;28.30;93.50;;;;;;5036455;28;20261;-72
2023/07/19 12:43:11;;;;;;;2.72;1.60;;;28.20;93.60;;;;;;5036735;28;20177;-70
2023/07/19 12:45:36;;;;;;;4.90;1.95;;;28.10;93.10;;;;;;5036708;28;20181;-70
2023/07/19 12:48:04;;;;;;;3.72;1.77;;;28.00;93.10;;;;;;5067054;22;20215;-71
2023/07/19 12:50:30;;;;;;;4.22;1.65;;;27.90;92.50;;;;;;5015526;28;20190;-72